Aviation Digital Data Service (ADDS)

Output produced by METARs form (0413 UTC 02 September 2014)
found at http://aviationweather.gov/adds/metars/
 
KBDR 020234Z 0203/0224 21005KT P6SM SCT040 BKN150 
     FM020800 VRB03KT 6SM BR SCT015 SCT040 BKN150 
     TEMPO 0208/0212 3SM BR 
     FM021400 23005KT P6SM FEW020 SCT040 
     FM021600 21008KT P6SM SCT050